TimeCST,TemperatureF,Dew PointF,Humidity,Sea Level PressureIn,VisibilityMPH,Wind Direction,Wind SpeedMPH,Gust SpeedMPH,PrecipitationIn,Events,Conditions,WindDirDegrees,DateUTC
12:15 AM,39.2,28.4,65,29.79,10.0,SW,3.5,-,N/A,,Mostly Cloudy,220,2013-01-19 06:15:00
12:35 AM,39.2,28.4,65,29.78,10.0,Calm,Calm,-,N/A,,Overcast,0,2013-01-19 06:35:00
12:55 AM,39.2,28.4,65,29.78,10.0,South,3.5,-,N/A,,Overcast,170,2013-01-19 06:55:00
1:15 AM,39.2,28.4,65,29.77,10.0,SSW,6.9,-,N/A,,Overcast,210,2013-01-19 07:15:00
1:35 AM,39.2,28.4,65,29.76,10.0,SSW,4.6,-,N/A,,Scattered Clouds,210,2013-01-19 07:35:00
1:55 AM,39.2,28.4,65,29.77,10.0,SSW,5.8,-,N/A,,Scattered Clouds,210,2013-01-19 07:55:00
2:15 AM,39.2,28.4,65,29.77,10.0,SSW,5.8,-,N/A,,Mostly Cloudy,210,2013-01-19 08:15:00
2:35 AM,39.2,28.4,65,29.76,10.0,SSW,6.9,-,N/A,,Mostly Cloudy,210,2013-01-19 08:35:00
2:55 AM,39.2,28.4,65,29.76,10.0,SSW,9.2,-,N/A,,Mostly Cloudy,200,2013-01-19 08:55:00
3:15 AM,39.2,28.4,65,29.75,10.0,SSW,6.9,-,N/A,,Partly Cloudy,200,2013-01-19 09:15:00
3:35 AM,39.2,28.4,65,29.75,10.0,SSW,5.8,-,N/A,,Clear,200,2013-01-19 09:35:00
3:55 AM,39.2,28.4,65,29.74,10.0,SSW,6.9,-,N/A,,Partly Cloudy,210,2013-01-19 09:55:00
4:15 AM,39.2,28.4,65,29.74,10.0,SW,9.2,-,N/A,,Mostly Cloudy,230,2013-01-19 10:15:00
4:35 AM,41.0,28.4,61,29.73,10.0,WSW,9.2,-,N/A,,Overcast,250,2013-01-19 10:35:00
4:55 AM,41.0,28.4,61,29.73,10.0,WSW,10.4,-,N/A,,Overcast,240,2013-01-19 10:55:00
5:15 AM,42.8,28.4,57,29.72,10.0,WSW,11.5,-,N/A,,Mostly Cloudy,240,2013-01-19 11:15:00
5:35 AM,42.8,28.4,57,29.73,10.0,WSW,12.7,-,N/A,,Clear,250,2013-01-19 11:35:00
5:55 AM,42.8,28.4,57,29.73,10.0,WSW,15.0,19.6,N/A,,Clear,250,2013-01-19 11:55:00
6:15 AM,42.8,28.4,57,29.73,10.0,WSW,15.0,-,N/A,,Partly Cloudy,250,2013-01-19 12:15:00
6:35 AM,42.8,28.4,57,29.74,10.0,West,15.0,-,N/A,,Partly Cloudy,270,2013-01-19 12:35:00
6:55 AM,41.0,28.4,61,29.73,10.0,West,12.7,-,N/A,,Partly Cloudy,260,2013-01-19 12:55:00
7:15 AM,42.8,28.4,57,29.74,10.0,West,12.7,-,N/A,,Clear,260,2013-01-19 13:15:00
7:35 AM,42.8,28.4,57,29.74,10.0,WSW,12.7,-,N/A,,Clear,250,2013-01-19 13:35:00
7:55 AM,42.8,28.4,57,29.74,10.0,WSW,13.8,-,N/A,,Clear,250,2013-01-19 13:55:00
8:15 AM,42.8,28.4,57,29.75,10.0,West,13.8,-,N/A,,Clear,260,2013-01-19 14:15:00
8:35 AM,41.0,28.4,61,29.76,10.0,West,15.0,-,N/A,,Clear,260,2013-01-19 14:35:00
8:55 AM,42.8,28.4,57,29.77,10.0,West,13.8,-,N/A,,Scattered Clouds,270,2013-01-19 14:55:00
9:15 AM,42.8,28.4,57,29.78,10.0,West,11.5,-,N/A,,Mostly Cloudy,270,2013-01-19 15:15:00
9:35 AM,42.8,28.4,57,29.80,10.0,WNW,15.0,-,N/A,,Mostly Cloudy,290,2013-01-19 15:35:00
9:55 AM,44.6,28.4,53,29.80,10.0,West,16.1,-,N/A,,Partly Cloudy,280,2013-01-19 15:55:00
10:15 AM,44.6,28.4,53,29.81,10.0,WNW,16.1,-,N/A,,Scattered Clouds,290,2013-01-19 16:15:00
10:35 AM,44.6,28.4,53,29.82,10.0,WNW,18.4,-,N/A,,Scattered Clouds,290,2013-01-19 16:35:00
10:55 AM,46.4,28.4,50,29.83,10.0,WNW,16.1,23.0,N/A,,Clear,290,2013-01-19 16:55:00
11:15 AM,46.4,28.4,50,29.82,10.0,WNW,19.6,-,N/A,,Scattered Clouds,300,2013-01-19 17:15:00
11:35 AM,48.2,30.2,50,29.81,10.0,WNW,21.9,28.8,N/A,,Mostly Cloudy,300,2013-01-19 17:35:00
11:55 AM,48.2,30.2,50,29.81,10.0,WNW,19.6,25.3,N/A,,Overcast,300,2013-01-19 17:55:00
12:15 PM,48.2,30.2,50,29.82,10.0,NW,24.2,28.8,N/A,,Scattered Clouds,310,2013-01-19 18:15:00
12:35 PM,48.2,30.2,50,29.82,10.0,NW,23.0,28.8,N/A,,Clear,310,2013-01-19 18:35:00
12:55 PM,48.2,30.2,50,29.83,10.0,WNW,26.5,32.2,N/A,,Clear,300,2013-01-19 18:55:00
1:15 PM,48.2,30.2,50,29.84,10.0,NW,27.6,34.5,N/A,,Partly Cloudy,310,2013-01-19 19:15:00
1:35 PM,48.2,28.4,46,29.85,10.0,WNW,23.0,31.1,N/A,,Clear,300,2013-01-19 19:35:00
1:55 PM,48.2,28.4,46,29.86,10.0,NW,23.0,35.7,N/A,,Partly Cloudy,310,2013-01-19 19:55:00
2:15 PM,48.2,28.4,46,29.86,10.0,WNW,26.5,34.5,N/A,,Mostly Cloudy,300,2013-01-19 20:15:00
2:35 PM,46.4,28.4,50,29.86,10.0,WNW,25.3,34.5,N/A,,Mostly Cloudy,300,2013-01-19 20:35:00
2:55 PM,48.2,28.4,46,29.87,10.0,WNW,26.5,39.1,N/A,,Mostly Cloudy,300,2013-01-19 20:55:00
3:15 PM,46.4,28.4,50,29.89,10.0,NNW,28.8,39.1,N/A,,Overcast,330,2013-01-19 21:15:00
3:35 PM,37.4,21.2,52,29.93,10.0,NW,28.8,38.0,N/A,,Overcast,320,2013-01-19 21:35:00
3:55 PM,33.8,21.2,60,29.94,10.0,NW,27.6,38.0,N/A,,Overcast,310,2013-01-19 21:55:00
4:15 PM,35.6,21.2,56,29.96,10.0,NW,31.1,41.4,N/A,,Overcast,310,2013-01-19 22:15:00
4:35 PM,32.0,19.4,60,29.98,10.0,NW,28.8,35.7,N/A,,Overcast,310,2013-01-19 22:35:00
4:55 PM,30.2,15.8,55,30.01,10.0,NW,29.9,38.0,N/A,,Overcast,310,2013-01-19 22:55:00
5:15 PM,28.4,12.2,51,30.03,10.0,NW,33.4,43.7,N/A,,Overcast,310,2013-01-19 23:15:00
5:35 PM,26.6,10.4,51,30.05,10.0,NW,28.8,41.4,N/A,,Scattered Clouds,320,2013-01-19 23:35:00
5:55 PM,24.8,10.4,54,30.07,10.0,NW,32.2,40.3,N/A,,Mostly Cloudy,310,2013-01-19 23:55:00
6:15 PM,-9999,-9999,N/A,30.08,10.0,WNW,32.2,41.4,N/A,,Mostly Cloudy,300,2013-01-20 00:15:00
6:35 PM,-9999,-9999,N/A,30.10,10.0,WNW,33.4,42.6,N/A,,Mostly Cloudy,300,2013-01-20 00:35:00
6:55 PM,-9999,-9999,N/A,30.11,10.0,WNW,31.1,41.4,N/A,,Mostly Cloudy,300,2013-01-20 00:55:00
7:15 PM,-9999,-9999,N/A,30.13,10.0,WNW,33.4,43.7,N/A,,Partly Cloudy,300,2013-01-20 01:15:00
7:35 PM,17.6,1.4,49,30.15,10.0,WNW,27.6,41.4,N/A,,Partly Cloudy,300,2013-01-20 01:35:00
7:55 PM,15.8,1.4,53,30.16,10.0,WNW,29.9,38.0,N/A,,Partly Cloudy,300,2013-01-20 01:55:00
8:15 PM,15.8,1.4,53,30.17,10.0,NW,25.3,35.7,N/A,,Scattered Clouds,310,2013-01-20 02:15:00
8:35 PM,14.0,-0.4,53,30.18,10.0,WNW,27.6,36.8,N/A,,Scattered Clouds,300,2013-01-20 02:35:00
8:55 PM,12.2,1.4,62,30.19,10.0,NW,25.3,35.7,N/A,,Clear,310,2013-01-20 02:55:00
9:15 PM,12.2,-0.4,57,30.20,10.0,NW,24.2,33.4,N/A,,Clear,310,2013-01-20 03:15:00
9:35 PM,10.4,-0.4,62,30.21,10.0,NW,20.7,29.9,N/A,,Clear,310,2013-01-20 03:35:00
9:55 PM,10.4,-0.4,62,30.22,10.0,WNW,21.9,27.6,N/A,,Clear,300,2013-01-20 03:55:00
10:15 PM,10.4,-0.4,62,30.22,10.0,NW,20.7,29.9,N/A,,Clear,310,2013-01-20 04:15:00
10:35 PM,10.4,-0.4,62,30.22,10.0,WNW,23.0,27.6,N/A,,Clear,300,2013-01-20 04:35:00
10:55 PM,10.4,-0.4,62,30.23,10.0,NW,19.6,27.6,N/A,,Clear,310,2013-01-20 04:55:00
11:15 PM,8.6,-0.4,67,30.23,10.0,NW,25.3,29.9,N/A,,Clear,310,2013-01-20 05:15:00
11:35 PM,8.6,-0.4,67,30.25,10.0,WNW,23.0,26.5,N/A,,Clear,300,2013-01-20 05:35:00
11:55 PM,8.6,-2.2,62,30.25,10.0,NW,24.2,27.6,N/A,,Clear,310,2013-01-20 05:55:00